createdAt,value
2022-11-29T00:02:34.145Z,83.90
2022-11-29T00:05:36.012Z,55.28
2022-11-29T00:08:37.850Z,49.35
2022-11-29T00:11:59.279Z,77.20
2022-11-29T00:15:00.833Z,55.13
2022-11-29T00:18:02.438Z,63.30
2022-11-29T00:21:08.341Z,52.35
2022-11-29T00:24:10.129Z,49.40
2022-11-29T00:27:11.745Z,82.20
2022-11-29T00:30:14.141Z,56.00
2022-11-29T00:33:15.687Z,50.65
2022-11-29T00:36:17.326Z,96.93
2022-11-29T00:39:19.140Z,53.22
2022-11-29T00:42:20.804Z,54.00
2022-11-29T00:45:22.676Z,68.70
2022-11-29T00:48:25.053Z,66.00
2022-11-29T00:51:26.630Z,70.93
2022-11-29T00:54:28.246Z,74.05
2022-11-29T00:57:29.759Z,57.90
2022-11-29T01:00:31.371Z,70.80
2022-11-29T01:03:34.239Z,87.30
2022-11-29T01:06:35.776Z,74.10
2022-11-29T01:09:37.306Z,64.40
2022-11-29T01:12:39.640Z,54.65
2022-11-29T01:15:42.062Z,62.67
2022-11-29T01:18:43.846Z,75.30
2022-11-29T01:21:45.355Z,65.20
2022-11-29T01:24:47.000Z,57.70
2022-11-29T01:27:48.601Z,58.88
2022-11-29T01:30:50.157Z,63.35
2022-11-29T01:33:56.720Z,56.38
2022-11-29T01:36:58.320Z,64.20
2022-11-29T01:39:59.871Z,76.70
2022-11-29T01:43:01.467Z,71.38
2022-11-29T01:46:03.074Z,57.28
2022-11-29T01:49:24.495Z,76.15
2022-11-29T01:52:29.718Z,80.28
2022-11-29T01:55:32.750Z,83.45
2022-11-29T01:58:35.359Z,65.05
2022-11-29T02:01:37.752Z,100.35
2022-11-29T02:04:41.968Z,85.85
2022-11-29T02:07:48.237Z,104.82
2022-11-29T02:11:19.831Z,106.45
2022-11-29T02:15:00.468Z,208.70
2022-11-29T02:18:07.875Z,128.35
2022-11-29T02:21:19.674Z,118.38
2022-11-29T02:24:38.235Z,141.40
2022-11-29T02:27:48.772Z,163.30
2022-11-29T02:31:16.758Z,123.43
2022-11-29T02:34:37.202Z,165.40
2022-11-29T02:38:07.176Z,191.63
2022-11-29T02:41:30.780Z,145.80
2022-11-29T02:44:58.923Z,171.95
2022-11-29T02:48:31.410Z,194.48
2022-11-29T02:51:43.280Z,195.23
2022-11-29T02:55:00.975Z,183.75
2022-11-29T02:58:32.106Z,192.50
2022-11-29T03:02:04.867Z,176.90
2022-11-29T03:05:48.406Z,140.38
2022-11-29T03:09:10.374Z,205.70
2022-11-29T03:12:39.726Z,167.88
2022-11-29T03:15:47.922Z,141.82
2022-11-29T03:18:50.816Z,163.43
2022-11-29T03:22:17.147Z,141.95
2022-11-29T03:25:27.913Z,159.77
2022-11-29T03:32:18.382Z,146.55
2022-11-29T03:35:32.041Z,152.15
2022-11-29T03:38:44.297Z,146.40
2022-11-29T03:42:03.233Z,134.32
2022-11-29T03:45:28.915Z,135.95
2022-11-29T03:48:36.690Z,124.72
2022-11-29T03:52:01.027Z,119.35
2022-11-29T03:55:29.937Z,156.35
2022-11-29T03:58:47.562Z,122.88
2022-11-29T04:02:19.913Z,119.18
2022-11-29T04:05:54.240Z,109.35
2022-11-29T04:09:22.283Z,114.13
2022-11-29T04:12:44.740Z,135.60
2022-11-29T04:15:46.266Z,123.53
2022-11-29T04:19:05.863Z,104.85
2022-11-29T04:22:23.053Z,102.32
2022-11-29T04:25:56.979Z,103.45
2022-11-29T04:29:14.589Z,106.28
2022-11-29T04:32:48.144Z,99.78
2022-11-29T04:35:58.788Z,102.72
2022-11-29T04:39:06.076Z,97.68
2022-11-29T04:42:32.648Z,89.45
2022-11-29T04:45:43.102Z,68.78
2022-11-29T04:49:10.797Z,88.50
2022-11-29T04:52:43.622Z,93.63
2022-11-29T04:55:58.923Z,96.88
2022-11-29T04:59:13.583Z,83.43
2022-11-29T05:02:31.471Z,92.70
2022-11-29T05:05:54.927Z,86.82
2022-11-29T05:09:17.867Z,86.95
2022-11-29T05:12:24.340Z,98.45
2022-11-29T05:15:44.557Z,95.05
2022-11-29T05:19:25.376Z,81.30
2022-11-29T05:22:34.270Z,97.90
2022-11-29T05:26:08.962Z,134.52
2022-11-29T05:29:19.172Z,95.32
2022-11-29T05:32:53.056Z,91.45
2022-11-29T05:36:13.844Z,78.35
2022-11-29T05:42:41.750Z,79.13
2022-11-29T05:46:01.548Z,101.00
2022-11-29T05:49:25.803Z,95.53
2022-11-29T05:52:33.078Z,80.53
2022-11-29T05:55:53.497Z,79.72
2022-11-29T05:59:07.993Z,123.97
2022-11-29T06:02:24.129Z,96.13
2022-11-29T06:05:49.713Z,135.10
2022-11-29T06:09:07.804Z,123.72
2022-11-29T06:12:20.644Z,109.95
2022-11-29T06:15:42.867Z,96.40
2022-11-29T06:19:22.678Z,113.68
2022-11-29T06:22:33.295Z,114.72
2022-11-29T06:25:43.200Z,103.72
2022-11-29T06:28:47.798Z,91.72
2022-11-29T06:32:33.327Z,84.97
2022-11-29T06:35:48.219Z,86.35
2022-11-29T06:38:49.971Z,121.00
2022-11-29T06:41:51.638Z,108.65
2022-11-29T06:44:53.669Z,113.60
2022-11-29T06:48:06.320Z,145.65
2022-11-29T06:51:25.231Z,115.50
2022-11-29T06:55:02.729Z,175.57
2022-11-29T06:58:37.653Z,121.93
2022-11-29T07:01:47.820Z,122.82
2022-11-29T07:05:03.363Z,162.48
2022-11-29T07:08:15.790Z,103.20
2022-11-29T07:11:17.488Z,97.57
2022-11-29T07:14:19.360Z,155.02
2022-11-29T07:17:44.755Z,154.57
2022-11-29T07:21:18.006Z,137.32
2022-11-29T07:24:45.765Z,131.23
2022-11-29T07:27:58.871Z,112.57
2022-11-29T07:31:12.417Z,130.77
2022-11-29T07:34:45.560Z,127.63
2022-11-29T07:38:20.631Z,122.32
2022-11-29T07:41:41.269Z,115.82
2022-11-29T07:45:01.656Z,94.22
2022-11-29T07:48:04.604Z,104.05
2022-11-29T07:51:06.316Z,117.30
2022-11-29T07:54:09.579Z,110.90
2022-11-29T07:57:11.075Z,82.78
2022-11-29T08:00:14.315Z,93.85
2022-11-29T08:03:15.838Z,123.90
2022-11-29T08:06:24.558Z,132.98
2022-11-29T08:09:26.120Z,111.25
2022-11-29T08:12:27.674Z,119.72
2022-11-29T08:15:29.235Z,95.20
2022-11-29T08:18:30.760Z,93.95
2022-11-29T08:21:32.306Z,101.10
2022-11-29T08:24:33.848Z,88.15
2022-11-29T08:27:36.767Z,71.00
2022-11-29T08:30:38.574Z,85.45
2022-11-29T08:33:41.764Z,82.47
2022-11-29T08:36:43.297Z,73.78
2022-11-29T08:39:44.848Z,86.45
2022-11-29T08:42:46.400Z,71.00
2022-11-29T08:45:52.093Z,122.28
2022-11-29T08:48:53.678Z,82.40
2022-11-29T08:52:15.186Z,67.47
2022-11-29T08:55:17.562Z,65.70
2022-11-29T08:58:21.285Z,78.82
2022-11-29T09:01:22.936Z,80.13
2022-11-29T09:04:24.683Z,82.13
2022-11-29T09:07:26.258Z,73.63
2022-11-29T09:10:27.777Z,69.93
2022-11-29T09:13:29.299Z,73.20
2022-11-29T09:16:34.225Z,76.53
2022-11-29T09:19:35.796Z,89.80
2022-11-29T09:22:37.421Z,92.88
2022-11-29T09:25:39.023Z,104.30
2022-11-29T09:28:40.561Z,84.90
2022-11-29T09:31:45.010Z,98.38
2022-11-29T09:34:46.919Z,104.88
2022-11-29T09:37:48.676Z,91.15
2022-11-29T09:40:54.740Z,112.85
2022-11-29T09:44:07.643Z,105.10
2022-11-29T09:47:24.345Z,115.20
2022-11-29T09:50:33.918Z,140.82
2022-11-29T09:53:44.321Z,109.95
2022-11-29T09:56:49.942Z,136.38
2022-11-29T09:59:56.878Z,140.48
2022-11-29T10:03:10.641Z,131.52
2022-11-29T10:06:39.014Z,140.88
2022-11-29T10:09:53.325Z,146.18
2022-11-29T10:13:01.229Z,174.77
2022-11-29T10:16:37.038Z,166.88
2022-11-29T10:19:43.684Z,162.77
2022-11-29T10:22:58.271Z,161.40
2022-11-29T10:25:59.971Z,189.25
2022-11-29T10:29:01.621Z,174.48
2022-11-29T10:32:10.437Z,169.15
2022-11-29T10:35:17.935Z,186.65
2022-11-29T10:38:30.674Z,222.70
2022-11-29T10:41:33.888Z,227.13
2022-11-29T10:44:35.495Z,185.40
2022-11-29T10:47:37.188Z,226.50
2022-11-29T10:50:42.698Z,253.38
2022-11-29T10:53:45.027Z,228.43
2022-11-29T10:56:49.847Z,193.95
2022-11-29T11:00:00.431Z,250.40
2022-11-29T11:03:44.042Z,195.35
2022-11-29T11:06:56.262Z,206.43
2022-11-29T11:09:59.396Z,191.73
2022-11-29T11:13:07.981Z,218.40
2022-11-29T11:16:19.332Z,209.45
2022-11-29T11:19:31.356Z,202.65
2022-11-29T11:22:34.541Z,226.70
2022-11-29T11:25:40.302Z,189.40
2022-11-29T11:28:59.984Z,206.57
2022-11-29T11:32:01.686Z,219.25
2022-11-29T11:35:20.738Z,204.40
2022-11-29T11:38:22.321Z,179.32
2022-11-29T11:41:53.502Z,198.57
2022-11-29T11:44:55.089Z,210.63
2022-11-29T11:48:23.535Z,201.40
2022-11-29T11:51:25.951Z,191.45
2022-11-29T11:54:29.483Z,175.02
2022-11-29T11:57:31.810Z,208.57
2022-11-29T12:01:04.386Z,219.57
2022-11-29T12:04:17.195Z,197.13
2022-11-29T12:07:59.754Z,216.05
2022-11-29T12:11:05.516Z,262.50
2022-11-29T12:14:18.246Z,211.30
2022-11-29T12:17:45.765Z,265.95
2022-11-29T12:21:03.178Z,283.25
2022-11-29T12:24:30.659Z,260.02
2022-11-29T12:27:32.273Z,268.90
2022-11-29T12:30:34.516Z,269.27
2022-11-29T12:34:22.742Z,266.55
2022-11-29T12:37:56.123Z,273.75
2022-11-29T12:41:26.290Z,254.85
2022-11-29T12:44:40.426Z,256.77
2022-11-29T12:47:57.567Z,219.52
2022-11-29T12:51:33.475Z,239.05
2022-11-29T12:55:12.589Z,218.23
2022-11-29T12:58:23.476Z,191.15
2022-11-29T13:01:34.023Z,208.07
2022-11-29T13:04:53.826Z,239.30
2022-11-29T13:08:07.188Z,263.15
2022-11-29T13:11:29.696Z,232.23
2022-11-29T13:14:43.812Z,215.65
2022-11-29T13:18:06.024Z,227.55
2022-11-29T13:21:37.022Z,230.85
2022-11-29T13:24:47.193Z,223.10
2022-11-29T13:28:00.863Z,190.35
2022-11-29T13:31:07.281Z,208.52
2022-11-29T13:34:39.219Z,182.02
2022-11-29T13:37:56.006Z,172.75
2022-11-29T13:41:14.489Z,140.60
2022-11-29T13:44:32.011Z,131.82
2022-11-29T13:47:51.610Z,119.30
2022-11-29T13:50:53.188Z,135.80
2022-11-29T13:53:57.225Z,110.30
2022-11-29T13:57:07.588Z,131.68
2022-11-29T14:00:28.781Z,116.95
2022-11-29T14:03:32.366Z,122.10
2022-11-29T14:06:37.147Z,115.40
2022-11-29T14:09:57.771Z,102.10
2022-11-29T14:13:01.372Z,109.93
2022-11-29T14:16:05.361Z,109.47
2022-11-29T14:19:23.903Z,111.00
2022-11-29T14:22:25.446Z,110.80
2022-11-29T14:38:11.368Z,122.60
2022-11-29T14:41:32.122Z,101.78
2022-11-29T14:47:38.829Z,125.75
2022-11-29T14:50:43.245Z,107.63
2022-11-29T14:53:48.955Z,108.13
2022-11-29T14:56:50.584Z,122.78
2022-11-29T14:59:54.140Z,133.07
2022-11-29T15:03:10.843Z,119.18
2022-11-29T15:06:24.086Z,131.07
2022-11-29T15:09:26.926Z,120.97
2022-11-29T15:12:36.854Z,108.95
2022-11-29T15:15:51.818Z,114.10
2022-11-29T15:19:30.279Z,97.55
2022-11-29T15:22:54.838Z,124.40
2022-11-29T15:26:01.244Z,117.78
2022-11-29T15:29:13.455Z,112.15
2022-11-29T15:32:30.288Z,111.75
2022-11-29T15:35:34.185Z,133.20
2022-11-29T15:38:46.813Z,123.57
2022-11-29T15:41:49.459Z,130.55
2022-11-29T15:44:53.104Z,128.45
2022-11-29T15:47:55.035Z,123.35
2022-11-29T15:51:04.731Z,130.68
2022-11-29T15:54:16.624Z,154.52
2022-11-29T15:57:26.162Z,138.88
2022-11-29T16:00:30.500Z,122.40
2022-11-29T16:03:35.321Z,116.60
2022-11-29T16:08:32.009Z,108.18
2022-11-29T16:11:13.483Z,108.85
2022-11-29T16:14:20.683Z,101.50
2022-11-29T16:17:26.693Z,102.85
2022-11-29T16:20:28.750Z,98.40
2022-11-29T16:23:41.206Z,95.95
2022-11-29T16:26:44.866Z,100.57
2022-11-29T16:29:47.328Z,90.22
2022-11-29T16:33:21.311Z,79.03
2022-11-29T16:36:25.160Z,84.10
2022-11-29T16:39:27.013Z,86.22
2022-11-29T16:42:31.380Z,99.55
2022-11-29T16:45:35.815Z,110.07
2022-11-29T16:48:38.274Z,107.03
2022-11-29T16:51:47.947Z,91.88
2022-11-29T16:54:49.925Z,97.03
2022-11-29T16:57:52.170Z,94.40
2022-11-29T17:00:53.991Z,113.32
2022-11-29T17:03:57.745Z,107.28
2022-11-29T17:06:59.504Z,106.40
2022-11-29T17:10:02.058Z,107.18
2022-11-29T17:13:08.761Z,114.15
2022-11-29T17:16:19.382Z,111.75
2022-11-29T17:19:23.475Z,127.30
2022-11-29T17:22:27.399Z,149.20
2022-11-29T17:25:28.948Z,102.50
2022-11-29T17:28:30.517Z,116.70
2022-11-29T17:31:32.357Z,113.22
2022-11-29T17:34:34.464Z,128.10
2022-11-29T17:37:36.027Z,147.90
2022-11-29T17:40:41.014Z,167.02
2022-11-29T17:43:45.573Z,149.95
2022-11-29T17:46:47.131Z,118.50
2022-11-29T17:49:48.852Z,118.18
2022-11-29T17:52:50.539Z,122.68
2022-11-29T17:55:52.391Z,107.85
2022-11-29T17:58:55.231Z,108.25
2022-11-29T18:01:56.878Z,109.75
2022-11-29T18:04:58.622Z,100.00
2022-11-29T18:08:00.316Z,89.60
2022-11-29T18:11:06.786Z,99.32
2022-11-29T18:14:11.589Z,136.80
2022-11-29T18:17:13.188Z,150.07
2022-11-29T18:20:14.854Z,110.45
2022-11-29T18:23:16.419Z,162.95
2022-11-29T18:26:23.362Z,110.72
2022-11-29T18:29:25.014Z,101.07
2022-11-29T18:32:27.591Z,96.43
2022-11-29T18:35:29.144Z,92.15
2022-11-29T18:38:31.584Z,99.65
2022-11-29T18:41:33.201Z,100.60
2022-11-29T18:44:36.859Z,110.05
2022-11-29T18:47:38.363Z,90.57
2022-11-29T18:50:39.971Z,111.45
2022-11-29T18:53:42.422Z,111.55
2022-11-29T18:56:45.411Z,110.32
2022-11-29T18:59:47.241Z,96.32
2022-11-29T19:02:49.231Z,90.68
2022-11-29T19:05:54.239Z,82.45
2022-11-29T19:09:00.701Z,93.82
2022-11-29T19:12:03.715Z,89.75
2022-11-29T19:15:05.603Z,97.88
2022-11-29T19:18:07.285Z,82.45
2022-11-29T19:21:14.766Z,92.22
2022-11-29T19:24:17.911Z,83.07
2022-11-29T19:27:21.128Z,83.15
2022-11-29T19:30:22.698Z,105.10
2022-11-29T19:33:24.361Z,103.50
2022-11-29T19:36:28.777Z,106.10
2022-11-29T19:39:31.087Z,103.28
2022-11-29T19:42:32.794Z,122.40
2022-11-29T19:45:34.391Z,95.55
2022-11-29T19:48:36.643Z,100.05
2022-11-29T19:51:38.522Z,93.93
2022-11-29T19:54:40.061Z,97.35
2022-11-29T19:57:44.227Z,87.43
2022-11-29T20:00:45.772Z,94.45
2022-11-29T20:03:47.279Z,110.20
2022-11-29T20:06:48.886Z,101.82
2022-11-29T20:09:50.402Z,107.05
2022-11-29T20:12:51.950Z,103.05
2022-11-29T20:15:53.467Z,128.95
2022-11-29T20:18:56.206Z,116.60
2022-11-29T20:21:57.936Z,111.45
2022-11-29T20:24:59.623Z,111.28
2022-11-29T20:28:01.205Z,129.63
2022-11-29T20:31:07.757Z,115.70
2022-11-29T20:34:12.019Z,130.32
2022-11-29T20:37:54.414Z,125.50
2022-11-29T20:41:03.801Z,113.35
2022-11-29T20:44:05.803Z,124.78
2022-11-29T20:47:17.459Z,123.55
2022-11-29T20:50:23.157Z,123.30
2022-11-29T20:53:40.667Z,125.95
2022-11-29T20:56:42.377Z,107.25
2022-11-29T20:59:44.604Z,116.43
2022-11-29T21:02:46.400Z,109.95
2022-11-29T21:05:48.650Z,112.63
2022-11-29T21:08:51.071Z,114.07
2022-11-29T21:11:53.005Z,119.13
2022-11-29T21:14:54.893Z,123.28
2022-11-29T21:17:59.726Z,123.18
2022-11-29T21:21:22.193Z,114.85
2022-11-29T21:24:52.537Z,125.78
2022-11-29T21:27:55.304Z,108.13
2022-11-29T21:30:57.154Z,117.90
2022-11-29T21:33:58.961Z,125.43
2022-11-29T21:37:00.558Z,107.15
2022-11-29T21:40:02.062Z,136.75
2022-11-29T21:43:03.593Z,111.57
2022-11-29T21:46:05.266Z,101.80
2022-11-29T21:49:07.466Z,115.47
2022-11-29T21:52:09.034Z,107.78
2022-11-29T21:55:11.081Z,115.18
2022-11-29T21:58:12.731Z,101.47
2022-11-29T22:01:19.785Z,118.13
2022-11-29T22:04:21.410Z,139.07
2022-11-29T22:07:22.990Z,141.50
2022-11-29T22:10:24.566Z,131.13
2022-11-29T22:13:26.095Z,141.82
2022-11-29T22:16:28.759Z,152.05
2022-11-29T22:19:36.157Z,154.93
2022-11-29T22:22:37.651Z,163.85
2022-11-29T22:25:39.209Z,165.68
2022-11-29T22:28:40.733Z,128.98
2022-11-29T22:31:47.513Z,168.57
2022-11-29T22:34:49.169Z,148.18
2022-11-29T22:37:50.726Z,142.07
2022-11-29T22:40:52.246Z,195.95
2022-11-29T22:43:54.015Z,145.40
2022-11-29T22:46:55.883Z,135.65
2022-11-29T22:49:57.499Z,169.52
2022-11-29T22:53:05.038Z,175.73
2022-11-29T22:56:09.612Z,155.18
2022-11-29T22:59:11.177Z,205.90
2022-11-29T23:02:12.885Z,145.23
2022-11-29T23:05:14.514Z,157.90
2022-11-29T23:08:16.043Z,160.65
2022-11-29T23:11:25.236Z,155.30
2022-11-29T23:14:26.807Z,197.15
2022-11-29T23:17:28.382Z,171.57
2022-11-29T23:20:29.923Z,169.27
2022-11-29T23:23:31.910Z,165.50
2022-11-29T23:26:38.653Z,184.40
2022-11-29T23:29:40.204Z,156.75
2022-11-29T23:32:41.734Z,135.68
2022-11-29T23:35:43.308Z,185.85
2022-11-29T23:38:44.985Z,161.77
2022-11-29T23:41:46.511Z,110.68
2022-11-29T23:44:48.402Z,180.55
2022-11-29T23:47:50.617Z,130.65
2022-11-29T23:50:52.387Z,141.60
2022-11-29T23:53:54.345Z,158.00
2022-11-29T23:56:55.913Z,147.18
2022-11-29T23:59:57.672Z,152.23
